メインページ
METAR-TAF:

METAR-TAF

空港 :

カポレイ, ハワイ州, アメリカ合衆国

緯度: 21-18-30N, 経度: 158-04-05W, 海抜: 10m

現時点の気象観測

当レポートは26分前の18:53(UTC)に作成
変向風 6kt
気温 25°C
湿度 79%
気圧 1015 hPa
視程: 16.1km
高度5500ftの千切れ雲あり
高度7000ftの千切れ雲あり

METAR: PHJR 151853Z VRB06KT 10SM BKN055 BKN070 25/21 A2997 RMK AO2 SLP154 T02500206

時間: 09:19 (19:19 UTC)

予報

当レポートは1時間54分前の17:25(UTC)に作成
予報は15日の 18時(UTC)から 16日の 18時(UTC)まで有効
北東の風 5kt
視程: 10km
高度6000ftの千切れ雲あり
15日の 2100時(UTC)から
東/北東の風 9kt
視程: 10km
高度3000ftの雲はほとんどない
高度4500ftの雲は散在している
16日の 0500時(UTC)から
変向風 5kt
視程: 10km
高度5000ftの雲はほとんどない

TAF: PHJR 151725Z 1518/1618 04005KT P6SM BKN060 FM152100 07009KT P6SM FEW030 SCT045 FM160500 VRB05KT P6SM FEW050

4,000以上の空港の気象観測と天気予報(METAR報とTAF報)

利用可能な観測所は地図上に黄色い丸と赤い丸で示す。

丸の上にカーソルを重ねると観測所名を参照できる。

次にクリックすると気象観測と天気予報を参照できる。

マップの切り替え:黒色「×」印の緑ボタンをクリックして拡大、「-」印の緑ボタンをクリックして縮小、緑色の三角印をクリックして隣りの地図に切り替え


METAR-TAF: